Time;durP1;ratioP1;P1;durP2;ratioP2;P2;SDS_P1;SDS_P2;PMS_P1;PMS_P2;Temp;Humidity;BMP_temperature;BMP_pressure;BME280_temperature;BME280_humidity;BME280_pressure;Samples;Min_cycle;Max_cycle;Signal;HPM_P1;HPM_P2
2024/01/16 00:01:19;;;;;;;10.55;4.88;;;0.90;99.90;;;;;;5012307;28;20040;-41
2024/01/16 00:03:45;;;;;;;6.85;3.75;;;1.00;99.90;;;;;;5012590;28;20033;-43
2024/01/16 00:06:11;;;;;;;4.93;3.95;;;0.90;99.90;;;;;;5011751;28;20049;-41
2024/01/16 00:08:36;;;;;;;6.93;3.75;;;0.90;99.90;;;;;;5012424;28;20072;-42
2024/01/16 00:11:03;;;;;;;12.85;4.18;;;1.00;99.90;;;;;;5012440;28;20101;-41
2024/01/16 00:13:29;;;;;;;7.13;4.25;;;1.00;99.90;;;;;;5012627;28;20018;-42
2024/01/16 00:15:56;;;;;;;7.95;5.32;;;1.00;99.90;;;;;;5011898;28;20108;-40
2024/01/16 00:18:22;;;;;;;7.25;3.92;;;1.00;99.90;;;;;;5012557;28;20022;-42
2024/01/16 00:20:48;;;;;;;10.95;4.15;;;1.00;99.90;;;;;;5012366;28;20034;-44
2024/01/16 00:23:13;;;;;;;7.18;3.90;;;1.10;99.90;;;;;;5012760;28;20109;-42
2024/01/16 00:25:39;;;;;;;7.95;5.13;;;1.10;99.90;;;;;;5012042;28;20032;-44
2024/01/16 00:28:04;;;;;;;6.93;4.00;;;1.20;99.90;;;;;;5011607;28;20032;-42
2024/01/16 00:30:30;;;;;;;10.30;4.22;;;1.20;99.90;;;;;;5011896;28;20052;-43
2024/01/16 00:32:55;;;;;;;9.45;4.50;;;1.30;99.90;;;;;;5012171;28;20113;-41
2024/01/16 00:35:21;;;;;;;8.55;4.20;;;1.30;99.90;;;;;;5011919;28;20483;-42
2024/01/16 00:37:47;;;;;;;13.45;4.10;;;1.30;99.90;;;;;;5011520;28;20029;-43
2024/01/16 00:40:12;;;;;;;9.68;5.10;;;1.40;99.90;;;;;;5011943;28;20033;-43
2024/01/16 00:42:38;;;;;;;6.88;5.03;;;1.30;99.90;;;;;;5011836;28;20044;-40
2024/01/16 00:45:04;;;;;;;7.40;4.00;;;1.30;99.90;;;;;;5011578;28;20049;-42
2024/01/16 00:47:30;;;;;;;6.18;3.67;;;1.30;99.90;;;;;;5011347;28;20100;-41
2024/01/16 00:49:55;;;;;;;13.00;4.82;;;1.30;99.90;;;;;;5012038;28;20550;-40
2024/01/16 00:52:21;;;;;;;6.68;3.95;;;1.20;99.90;;;;;;5012682;28;20026;-42
2024/01/16 00:54:46;;;;;;;8.10;4.03;;;1.10;99.90;;;;;;5011810;28;20046;-41
2024/01/16 00:57:12;;;;;;;10.93;5.03;;;1.10;99.90;;;;;;5011283;28;20475;-41
2024/01/16 00:59:37;;;;;;;9.35;4.00;;;1.10;99.90;;;;;;5011565;28;20025;-42
2024/01/16 01:02:03;;;;;;;7.45;4.80;;;1.00;99.90;;;;;;5011656;28;20034;-41
2024/01/16 01:04:29;;;;;;;11.20;4.80;;;1.00;99.90;;;;;;5011855;28;20022;-42
2024/01/16 01:06:55;;;;;;;15.20;4.93;;;0.90;99.90;;;;;;5011162;28;20406;-42
2024/01/16 01:09:20;;;;;;;6.05;4.63;;;0.80;99.90;;;;;;5011484;28;20053;-41
2024/01/16 01:11:46;;;;;;;11.30;4.43;;;0.60;99.90;;;;;;5011532;28;20174;-41
2024/01/16 01:14:12;;;;;;;6.63;5.45;;;0.60;99.90;;;;;;5011787;28;20018;-43
2024/01/16 01:16:37;;;;;;;6.78;4.60;;;0.50;99.90;;;;;;5011083;28;20073;-42
2024/01/16 01:19:03;;;;;;;6.07;4.30;;;0.50;99.90;;;;;;5011431;28;20530;-41
2024/01/16 01:21:28;;;;;;;8.57;5.50;;;0.40;99.90;;;;;;5011307;28;20026;-41
2024/01/16 01:23:54;;;;;;;8.32;5.35;;;0.30;99.90;;;;;;5011431;28;20034;-42
2024/01/16 01:26:19;;;;;;;8.20;5.10;;;0.30;99.90;;;;;;5010839;28;20058;-42
2024/01/16 01:28:46;;;;;;;8.93;5.10;;;0.30;99.90;;;;;;5015393;28;20312;-41
2024/01/16 01:31:12;;;;;;;11.90;6.07;;;0.30;99.90;;;;;;5015295;28;20033;-42
2024/01/16 01:33:38;;;;;;;9.95;5.07;;;0.40;99.90;;;;;;5015297;28;20018;-42
2024/01/16 01:36:03;;;;;;;9.00;5.57;;;0.40;99.90;;;;;;5015055;28;20526;-41
2024/01/16 01:38:29;;;;;;;8.82;4.88;;;0.30;99.90;;;;;;5015002;28;20113;-41
2024/01/16 01:40:54;;;;;;;15.20;5.55;;;0.30;99.90;;;;;;5014975;28;20494;-40
2024/01/16 01:43:21;;;;;;;11.32;5.57;;;0.20;99.90;;;;;;5014985;28;20041;-42
2024/01/16 01:46:14;;;;;;;6.65;4.78;;;0.20;99.90;;;;;;5014679;28;20029;-41
2024/01/16 01:48:44;;;;;;;13.57;5.25;;;0.20;99.90;;;;;;5015303;28;20105;-41
2024/01/16 01:51:13;;;;;;;11.40;5.50;;;0.30;99.90;;;;;;5014964;28;20022;-41
2024/01/16 01:53:41;;;;;;;7.22;5.65;;;0.30;99.90;;;;;;5014750;28;20442;-43
2024/01/16 01:56:10;;;;;;;6.15;4.63;;;0.20;99.90;;;;;;5014475;28;20037;-44
2024/01/16 01:58:39;;;;;;;8.50;5.10;;;0.30;99.90;;;;;;5014901;28;20046;-42
2024/01/16 02:01:07;;;;;;;11.55;5.32;;;0.30;99.90;;;;;;5014753;28;20137;-42
2024/01/16 02:03:41;;;;;;;12.05;7.07;;;0.30;99.90;;;;;;5014784;28;20033;-41
2024/01/16 02:06:07;;;;;;;11.13;5.97;;;0.20;99.90;;;;;;5014174;28;20105;-42
2024/01/16 02:08:33;;;;;;;10.73;6.38;;;0.20;99.90;;;;;;5014489;28;20093;-41
2024/01/16 02:10:58;;;;;;;12.95;6.13;;;0.20;99.90;;;;;;5015125;28;20022;-45
2024/01/16 02:13:24;;;;;;;9.45;5.93;;;0.20;99.90;;;;;;5014569;28;20022;-44
2024/01/16 02:15:50;;;;;;;7.35;4.88;;;0.20;99.90;;;;;;5014218;28;20034;-44
2024/01/16 02:18:16;;;;;;;28.08;12.70;;;0.30;99.90;;;;;;5014397;28;20506;-46
2024/01/16 02:20:42;;;;;;;19.60;11.98;;;0.30;99.90;;;;;;5014390;28;20026;-46
2024/01/16 02:23:12;;;;;;;10.52;6.13;;;0.20;99.90;;;;;;5013032;28;20084;-47
2024/01/16 02:25:38;;;;;;;9.60;5.85;;;0.20;99.90;;;;;;5014230;28;20036;-45
2024/01/16 02:28:04;;;;;;;8.93;5.30;;;0.30;99.90;;;;;;5014117;28;20022;-44
2024/01/16 02:30:29;;;;;;;8.93;5.38;;;0.40;99.90;;;;;;5014256;28;20100;-45
2024/01/16 02:32:55;;;;;;;5.28;4.75;;;0.40;99.90;;;;;;5014587;28;20482;-46
2024/01/16 02:35:20;;;;;;;18.10;5.30;;;0.40;99.90;;;;;;5012752;28;20029;-48
2024/01/16 02:37:46;;;;;;;15.40;5.38;;;0.50;99.90;;;;;;5013161;28;20034;-47
2024/01/16 02:40:11;;;;;;;13.65;5.88;;;0.50;99.90;;;;;;5014031;28;20105;-44
2024/01/16 02:42:37;;;;;;;7.90;6.35;;;0.50;99.90;;;;;;5013986;28;20030;-47
2024/01/16 02:45:04;;;;;;;7.40;5.57;;;0.50;99.90;;;;;;5014210;28;20487;-47
2024/01/16 02:47:30;;;;;;;8.18;4.88;;;0.50;99.90;;;;;;5013840;28;20100;-44
2024/01/16 02:49:56;;;;;;;13.18;5.72;;;0.40;99.90;;;;;;5013810;28;20392;-45
2024/01/16 02:52:21;;;;;;;9.43;5.60;;;0.40;99.90;;;;;;5014472;28;20025;-47
2024/01/16 02:54:47;;;;;;;14.98;6.47;;;0.40;99.90;;;;;;5013585;28;20057;-48
2024/01/16 02:57:12;;;;;;;9.20;5.20;;;0.40;99.90;;;;;;5013298;28;20122;-45
2024/01/16 02:59:38;;;;;;;12.70;5.50;;;0.40;99.90;;;;;;5013610;28;20045;-48
2024/01/16 03:02:03;;;;;;;9.68;5.38;;;0.40;99.90;;;;;;5013628;28;20057;-49
2024/01/16 03:04:29;;;;;;;10.90;5.85;;;0.40;99.90;;;;;;5013811;28;20402;-44
2024/01/16 03:06:55;;;;;;;13.68;5.47;;;0.40;99.90;;;;;;5013061;28;20471;-44
2024/01/16 03:09:20;;;;;;;11.93;5.43;;;0.30;99.90;;;;;;5013492;28;20034;-44
2024/01/16 03:11:46;;;;;;;8.38;5.70;;;0.30;99.90;;;;;;5013424;28;20574;-48
2024/01/16 03:14:13;;;;;;;11.80;5.95;;;0.30;99.90;;;;;;5014571;28;20100;-46
2024/01/16 03:16:39;;;;;;;7.43;5.05;;;0.40;99.90;;;;;;5013094;28;20068;-44
2024/01/16 03:19:04;;;;;;;15.15;5.53;;;0.40;99.90;;;;;;5013218;28;20087;-44
2024/01/16 03:21:30;;;;;;;13.40;6.18;;;0.50;99.90;;;;;;5013232;28;20471;-45
2024/01/16 03:23:56;;;;;;;9.35;5.32;;;0.50;99.90;;;;;;5013206;28;20402;-46
2024/01/16 03:26:21;;;;;;;12.32;5.80;;;0.50;99.90;;;;;;5012922;28;20029;-44
2024/01/16 03:28:46;;;;;;;8.27;5.63;;;0.60;99.90;;;;;;5013079;28;20026;-45
2024/01/16 03:31:14;;;;;;;12.05;5.60;;;0.60;99.90;;;;;;5013069;28;20022;-44
2024/01/16 03:33:41;;;;;;;10.52;5.30;;;0.60;99.90;;;;;;5013068;28;20438;-46
2024/01/16 03:36:09;;;;;;;13.38;5.47;;;0.70;99.90;;;;;;5012964;28;20045;-44
2024/01/16 03:38:36;;;;;;;11.45;5.72;;;0.80;99.90;;;;;;5012817;28;20126;-47
2024/01/16 03:41:03;;;;;;;9.65;5.78;;;0.80;99.90;;;;;;5012827;28;20056;-44
2024/01/16 03:43:29;;;;;;;8.48;4.70;;;0.80;99.90;;;;;;5012947;28;20045;-49
2024/01/16 03:45:57;;;;;;;10.35;5.00;;;0.80;99.90;;;;;;5012499;28;20061;-40
2024/01/16 03:48:23;;;;;;;12.75;6.18;;;0.80;99.90;;;;;;5012661;28;20022;-49
2024/01/16 03:50:48;;;;;;;11.25;5.60;;;0.80;99.90;;;;;;5011920;28;20076;-44
2024/01/16 03:53:14;;;;;;;28.20;8.75;;;0.70;99.90;;;;;;5012794;28;20426;-44
2024/01/16 03:55:39;;;;;;;16.80;5.07;;;0.70;99.90;;;;;;5012555;28;20026;-49
2024/01/16 03:58:05;;;;;;;9.10;5.07;;;0.70;99.90;;;;;;5010947;28;20541;-45
2024/01/16 04:00:30;;;;;;;10.85;6.47;;;0.70;99.90;;;;;;5012529;28;20463;-44
2024/01/16 04:02:56;;;;;;;10.68;5.20;;;0.70;99.90;;;;;;5012397;28;20032;-48
2024/01/16 04:05:21;;;;;;;13.25;6.07;;;0.60;99.90;;;;;;5012422;28;20483;-50
2024/01/16 04:07:46;;;;;;;8.73;5.57;;;0.70;99.90;;;;;;5012019;28;20112;-44
2024/01/16 04:10:12;;;;;;;7.85;5.07;;;0.60;99.90;;;;;;5012448;28;20104;-46
2024/01/16 04:12:37;;;;;;;10.75;5.30;;;0.60;99.90;;;;;;5011128;28;20025;-46
2024/01/16 04:15:04;;;;;;;12.40;5.00;;;0.60;99.90;;;;;;5012183;28;20022;-44
2024/01/16 04:17:29;;;;;;;10.57;5.35;;;0.60;99.90;;;;;;5011735;28;20029;-46
2024/01/16 04:19:55;;;;;;;12.50;5.47;;;0.60;99.90;;;;;;5012373;28;20033;-44
2024/01/16 04:22:20;;;;;;;9.88;5.60;;;0.50;99.90;;;;;;5012054;28;20026;-48
2024/01/16 04:24:46;;;;;;;6.65;5.35;;;0.60;99.90;;;;;;5012176;28;20021;-46
2024/01/16 04:27:12;;;;;;;20.50;6.25;;;0.50;99.90;;;;;;5012069;28;20427;-44
2024/01/16 04:29:37;;;;;;;6.43;5.35;;;0.60;99.90;;;;;;5011985;28;20074;-45
2024/01/16 04:32:04;;;;;;;12.18;5.43;;;0.60;99.90;;;;;;5011902;28;20018;-46
2024/01/16 04:34:29;;;;;;;8.85;5.32;;;0.60;99.90;;;;;;5012195;28;20379;-45
2024/01/16 04:36:55;;;;;;;8.95;5.18;;;0.50;99.90;;;;;;5011530;28;20085;-46
2024/01/16 04:39:24;;;;;;;15.27;6.40;;;0.50;99.90;;;;;;5012268;28;20034;-46
2024/01/16 04:41:49;;;;;;;9.52;5.63;;;0.40;99.90;;;;;;5011784;28;20096;-44
2024/01/16 04:44:15;;;;;;;10.30;7.72;;;0.30;99.90;;;;;;5012246;28;20120;-47
2024/01/16 04:46:40;;;;;;;11.52;6.75;;;0.40;99.90;;;;;;5011283;28;20053;-49
2024/01/16 04:49:06;;;;;;;9.90;6.22;;;0.30;99.90;;;;;;5012256;28;20026;-45
2024/01/16 04:51:31;;;;;;;11.48;6.20;;;0.30;99.90;;;;;;5011708;28;20398;-44
2024/01/16 04:53:57;;;;;;;14.88;7.05;;;0.10;99.90;;;;;;5011749;28;20056;-46
2024/01/16 04:56:23;;;;;;;14.45;6.20;;;0.10;99.90;;;;;;5011292;28;20030;-44
2024/01/16 04:58:48;;;;;;;11.77;6.35;;;0.00;99.90;;;;;;5011561;28;20050;-42
2024/01/16 05:01:14;;;;;;;23.25;7.78;;;-0.10;99.90;;;;;;5011663;28;20426;-45
2024/01/16 05:03:39;;;;;;;13.30;6.63;;;-0.10;99.90;;;;;;5011561;28;20057;-45
2024/01/16 05:06:11;;;;;;;9.48;7.07;;;-0.20;99.90;;;;;;5011126;28;20041;-50
2024/01/16 05:08:37;;;;;;;11.93;7.13;;;-0.20;99.90;;;;;;5011514;28;20018;-45
2024/01/16 05:11:02;;;;;;;9.45;6.50;;;-0.20;99.90;;;;;;5011529;28;20032;-45
2024/01/16 05:13:28;;;;;;;14.93;7.78;;;-0.20;99.90;;;;;;5011519;28;20072;-45
2024/01/16 05:15:53;;;;;;;13.77;6.57;;;-0.10;99.90;;;;;;5011630;28;20054;-44
2024/01/16 05:18:19;;;;;;;15.52;7.72;;;-0.10;99.90;;;;;;5012318;28;20116;-45
2024/01/16 05:20:44;;;;;;;11.43;5.82;;;-0.10;99.90;;;;;;5012378;28;20051;-44
2024/01/16 05:23:10;;;;;;;12.40;8.13;;;0.00;99.90;;;;;;5012622;28;20467;-46
2024/01/16 05:25:35;;;;;;;12.32;6.97;;;0.00;99.90;;;;;;5012607;28;20030;-47
2024/01/16 05:28:01;;;;;;;10.73;6.93;;;0.00;99.90;;;;;;5011884;28;20062;-44
2024/01/16 05:30:26;;;;;;;17.63;7.82;;;0.00;99.90;;;;;;5011327;28;20432;-43
2024/01/16 05:32:52;;;;;;;10.73;7.57;;;0.00;99.90;;;;;;5011407;28;20025;-45
2024/01/16 05:35:17;;;;;;;11.32;6.88;;;0.10;99.90;;;;;;5011470;28;20022;-47
2024/01/16 05:37:43;;;;;;;14.25;6.75;;;0.10;99.90;;;;;;5010838;28;20050;-45
2024/01/16 05:40:09;;;;;;;10.13;6.85;;;0.10;99.90;;;;;;5011182;28;20037;-44
2024/01/16 05:42:35;;;;;;;10.05;6.15;;;0.10;99.90;;;;;;5011363;28;20104;-45
2024/01/16 05:45:00;;;;;;;14.02;7.07;;;0.20;99.90;;;;;;5011117;28;20026;-46
2024/01/16 05:47:27;;;;;;;15.50;7.00;;;0.20;99.90;;;;;;5010793;28;20022;-43
2024/01/16 05:49:54;;;;;;;16.55;7.53;;;0.10;99.90;;;;;;5011162;28;20022;-43
2024/01/16 05:52:19;;;;;;;14.20;7.30;;;0.10;99.90;;;;;;5011076;28;20053;-45
2024/01/16 05:54:44;;;;;;;16.02;8.02;;;0.00;99.90;;;;;;5011260;28;20351;-43
2024/01/16 05:57:10;;;;;;;12.20;7.15;;;-0.10;99.90;;;;;;5011012;28;20030;-48
2024/01/16 05:59:35;;;;;;;12.73;7.60;;;-0.20;99.90;;;;;;5011076;28;20113;-46
2024/01/16 06:02:01;;;;;;;13.70;7.18;;;-0.20;99.90;;;;;;5011193;28;20022;-43
2024/01/16 06:04:26;;;;;;;15.05;7.30;;;-0.20;99.90;;;;;;5011229;28;20030;-43
2024/01/16 06:06:52;;;;;;;12.63;7.65;;;-0.30;99.90;;;;;;5010605;28;20056;-47
2024/01/16 06:09:18;;;;;;;14.60;8.65;;;-0.30;99.90;;;;;;5011227;28;20068;-47
2024/01/16 06:11:44;;;;;;;13.20;9.50;;;-0.40;99.90;;;;;;5011014;28;20398;-47
2024/01/16 06:14:09;;;;;;;9.27;7.43;;;-0.40;99.90;;;;;;5013506;28;20033;-44
2024/01/16 06:16:35;;;;;;;12.07;8.63;;;-0.50;99.90;;;;;;5014067;28;20076;-43
2024/01/16 06:19:01;;;;;;;16.00;8.25;;;-0.50;99.90;;;;;;5014559;28;20067;-47
2024/01/16 06:21:27;;;;;;;17.63;9.43;;;-0.60;99.90;;;;;;5014439;28;20062;-45
2024/01/16 06:23:52;;;;;;;17.25;9.35;;;-0.60;99.90;;;;;;5014367;28;20095;-52
2024/01/16 06:26:18;;;;;;;27.35;9.63;;;-0.50;99.90;;;;;;5013905;28;20584;-47
2024/01/16 06:28:44;;;;;;;21.13;9.68;;;-0.60;99.90;;;;;;5014223;28;20030;-44
2024/01/16 06:31:10;;;;;;;17.77;9.18;;;-0.70;99.90;;;;;;5014157;28;20104;-45
2024/01/16 06:33:35;;;;;;;14.43;8.13;;;-0.70;99.90;;;;;;5014339;28;20026;-47
2024/01/16 06:36:04;;;;;;;17.48;9.25;;;-0.70;99.90;;;;;;5014044;28;20026;-44
2024/01/16 06:38:30;;;;;;;15.75;9.65;;;-0.80;99.90;;;;;;5014005;28;20049;-47
2024/01/16 06:40:56;;;;;;;18.45;9.73;;;-0.80;99.90;;;;;;5014035;28;20468;-44
2024/01/16 06:43:21;;;;;;;17.77;9.25;;;-0.80;99.90;;;;;;5014023;28;20034;-47
2024/01/16 06:45:47;;;;;;;21.20;10.73;;;-0.80;99.90;;;;;;5013609;28;20030;-45
2024/01/16 06:48:12;;;;;;;30.40;10.00;;;-0.70;99.90;;;;;;5013681;28;20495;-46
2024/01/16 06:50:38;;;;;;;13.60;10.18;;;-0.70;99.90;;;;;;5013861;28;20442;-45
2024/01/16 06:53:04;;;;;;;13.07;8.43;;;-0.70;99.90;;;;;;5014100;28;20018;-47
2024/01/16 06:55:29;;;;;;;17.08;8.90;;;-0.70;99.90;;;;;;5013925;28;20037;-44
2024/01/16 06:57:55;;;;;;;20.40;10.48;;;-0.70;99.90;;;;;;5013594;28;20037;-44
2024/01/16 07:00:22;;;;;;;16.70;9.68;;;-0.80;99.90;;;;;;5013796;28;20102;-45
2024/01/16 07:02:48;;;;;;;15.27;10.77;;;-0.80;99.90;;;;;;5014076;28;20022;-47
2024/01/16 07:05:13;;;;;;;23.25;9.73;;;-0.80;99.90;;;;;;5013513;28;20269;-49
2024/01/16 07:07:39;;;;;;;15.70;9.50;;;-0.80;99.90;;;;;;5013236;28;20038;-45
2024/01/16 07:10:08;;;;;;;19.15;10.05;;;-0.80;99.90;;;;;;5013485;28;20460;-45
2024/01/16 07:12:33;;;;;;;16.98;10.02;;;-0.80;99.90;;;;;;5013363;28;20025;-45
2024/01/16 07:14:59;;;;;;;17.42;10.02;;;-0.80;99.90;;;;;;5013373;28;20029;-42
2024/01/16 07:17:24;;;;;;;13.93;8.90;;;-0.90;99.90;;;;;;5013141;28;20517;-46
2024/01/16 07:19:50;;;;;;;14.18;9.00;;;-0.90;99.90;;;;;;5013365;28;20056;-43
2024/01/16 07:22:15;;;;;;;15.68;10.23;;;-0.90;99.90;;;;;;5013181;28;20073;-43
2024/01/16 07:24:41;;;;;;;25.70;11.15;;;-0.80;99.90;;;;;;5013597;28;20037;-43
2024/01/16 07:27:07;;;;;;;19.60;9.05;;;-0.80;99.90;;;;;;5012691;28;20084;-44
2024/01/16 07:29:32;;;;;;;17.25;9.68;;;-0.80;99.90;;;;;;5013301;28;20108;-47
2024/01/16 07:31:58;;;;;;;19.02;9.57;;;-0.70;99.90;;;;;;5013292;28;20076;-48
2024/01/16 07:34:25;;;;;;;15.18;9.38;;;-0.80;99.90;;;;;;5013331;28;20026;-49
2024/01/16 07:36:51;;;;;;;13.70;9.52;;;-0.70;99.90;;;;;;5012670;28;20026;-47
2024/01/16 07:39:16;;;;;;;17.73;8.80;;;-0.70;99.90;;;;;;5013097;28;20049;-42
2024/01/16 07:41:42;;;;;;;15.57;9.25;;;-0.80;99.90;;;;;;5012695;28;20505;-44
2024/01/16 07:44:07;;;;;;;29.55;11.93;;;-0.70;99.90;;;;;;5013330;28;20529;-49
2024/01/16 07:46:33;;;;;;;17.70;9.32;;;-0.80;99.90;;;;;;5012550;28;20084;-45
2024/01/16 07:48:58;;;;;;;17.20;9.55;;;-0.80;99.90;;;;;;5013179;28;20080;-46
2024/01/16 07:51:24;;;;;;;15.75;9.57;;;-0.80;99.90;;;;;;5012878;28;20139;-43
2024/01/16 07:54:07;;;;;;;26.30;11.45;;;-0.80;99.90;;;;;;5012734;28;20398;-44
2024/01/16 07:56:34;;;;;;;22.65;9.25;;;-0.70;99.90;;;;;;5012435;28;20042;-44
2024/01/16 07:58:59;;;;;;;15.45;9.85;;;-0.70;99.90;;;;;;5012960;28;20025;-48
2024/01/16 08:01:25;;;;;;;21.00;11.02;;;-0.70;99.90;;;;;;5012611;28;20494;-45
2024/01/16 08:03:50;;;;;;;17.67;10.60;;;-0.70;99.90;;;;;;5012741;28;20030;-46
2024/01/16 08:06:16;;;;;;;16.92;9.13;;;-0.60;99.90;;;;;;5012271;28;20597;-47
2024/01/16 08:08:41;;;;;;;18.88;10.50;;;-0.50;99.90;;;;;;5012437;28;20026;-45
2024/01/16 08:11:07;;;;;;;17.67;9.15;;;-0.50;99.90;;;;;;5028075;23;20095;-51
2024/01/16 08:13:33;;;;;;;16.33;9.18;;;-0.60;99.90;;;;;;5013216;28;20018;-53
2024/01/16 08:15:58;;;;;;;15.85;8.77;;;-0.60;99.90;;;;;;5011121;28;20025;-52
2024/01/16 08:18:24;;;;;;;14.98;9.10;;;-0.60;99.90;;;;;;5012730;28;20437;-49
2024/01/16 08:20:50;;;;;;;13.50;9.40;;;-0.60;99.90;;;;;;5025817;28;20033;-48
2024/01/16 08:23:15;;;;;;;18.38;10.48;;;-0.50;99.90;;;;;;5032623;28;20565;-48
2024/01/16 08:25:41;;;;;;;20.80;9.57;;;-0.50;99.90;;;;;;5031035;28;20041;-50
2024/01/16 08:28:07;;;;;;;17.42;9.73;;;-0.50;99.90;;;;;;5032084;28;20024;-48
2024/01/16 08:30:32;;;;;;;14.13;8.57;;;-0.50;99.90;;;;;;5032934;28;20029;-51
2024/01/16 08:32:58;;;;;;;18.20;9.38;;;-0.40;99.90;;;;;;5032081;28;20034;-49
2024/01/16 08:35:23;;;;;;;16.05;8.98;;;-0.40;99.90;;;;;;5030655;28;20104;-52
2024/01/16 08:37:49;;;;;;;15.85;10.32;;;-0.40;99.90;;;;;;5031735;28;20022;-51
2024/01/16 08:40:15;;;;;;;15.63;9.82;;;-0.40;99.90;;;;;;5031514;28;20037;-44
2024/01/16 08:42:41;;;;;;;15.25;9.98;;;-0.40;99.90;;;;;;5041285;28;20030;-48
2024/01/16 08:45:06;;;;;;;22.25;12.10;;;-0.30;99.90;;;;;;5032444;28;20013;-47
2024/01/16 08:47:32;;;;;;;15.38;10.05;;;-0.30;99.90;;;;;;5032306;28;20401;-51
2024/01/16 08:49:57;;;;;;;25.80;10.10;;;-0.30;99.90;;;;;;5030322;28;20033;-51
2024/01/16 08:52:23;;;;;;;18.77;9.20;;;-0.30;99.90;;;;;;5031810;28;20117;-49
2024/01/16 08:54:49;;;;;;;15.20;9.23;;;-0.30;99.90;;;;;;5031743;28;20029;-47
2024/01/16 08:57:15;;;;;;;17.35;9.63;;;-0.20;99.90;;;;;;5031412;28;20099;-46
2024/01/16 08:59:41;;;;;;;16.10;9.60;;;-0.20;99.90;;;;;;5030252;28;20036;-53
2024/01/16 09:02:07;;;;;;;19.15;9.15;;;-0.30;99.90;;;;;;5031597;28;20037;-51
2024/01/16 09:04:33;;;;;;;18.15;9.48;;;-0.30;99.90;;;;;;5031922;28;20072;-52
2024/01/16 09:06:59;;;;;;;19.38;9.93;;;-0.20;99.90;;;;;;5031383;28;20095;-49
2024/01/16 09:09:24;;;;;;;19.52;10.48;;;-0.20;99.90;;;;;;5030224;28;20505;-51
2024/01/16 09:11:50;;;;;;;25.10;9.75;;;-0.20;99.90;;;;;;5030416;28;20026;-49
2024/01/16 09:14:15;;;;;;;15.90;10.30;;;-0.10;99.90;;;;;;5031573;28;20026;-45
2024/01/16 09:16:42;;;;;;;18.75;8.63;;;-0.10;99.90;;;;;;5031577;28;20025;-54
2024/01/16 09:19:09;;;;;;;18.67;9.52;;;0.00;99.90;;;;;;5031934;28;20024;-49
2024/01/16 09:21:34;;;;;;;14.95;9.35;;;0.10;99.90;;;;;;5031508;28;20017;-49
2024/01/16 09:24:00;;;;;;;19.90;10.15;;;0.10;99.90;;;;;;5031812;28;20104;-48
2024/01/16 09:26:25;;;;;;;16.50;9.63;;;0.10;99.90;;;;;;5029881;28;20045;-53
2024/01/16 09:28:51;;;;;;;19.95;10.05;;;0.20;99.90;;;;;;5030014;28;20025;-50
2024/01/16 09:31:16;;;;;;;16.60;10.70;;;0.10;99.90;;;;;;5030049;28;20021;-51
2024/01/16 09:33:43;;;;;;;20.10;10.00;;;0.10;99.90;;;;;;5031458;28;20402;-49
2024/01/16 09:36:09;;;;;;;19.27;10.20;;;0.10;99.90;;;;;;5031090;28;20030;-49
2024/01/16 09:38:34;;;;;;;18.75;9.60;;;0.30;99.90;;;;;;5031368;28;20052;-49
2024/01/16 09:41:00;;;;;;;16.70;9.18;;;0.30;99.90;;;;;;5029920;28;20470;-51
2024/01/16 09:43:28;;;;;;;16.77;10.05;;;0.30;99.90;;;;;;5030950;28;20064;-55
2024/01/16 09:45:55;;;;;;;19.40;9.50;;;0.50;99.90;;;;;;5030875;28;20061;-52
2024/01/16 09:48:21;;;;;;;15.32;10.73;;;0.60;99.90;;;;;;5031393;28;20017;-50
2024/01/16 09:50:47;;;;;;;17.63;9.85;;;0.60;99.90;;;;;;5033833;28;20021;-50
2024/01/16 09:53:12;;;;;;;17.73;9.57;;;0.60;99.90;;;;;;5034919;28;20026;-50
2024/01/16 09:55:38;;;;;;;16.45;9.25;;;0.80;99.90;;;;;;5035268;28;20075;-52
2024/01/16 09:58:05;;;;;;;14.38;9.10;;;0.90;99.90;;;;;;5034507;28;20049;-50
2024/01/16 10:00:32;;;;;;;22.45;10.38;;;0.80;99.90;;;;;;5034856;28;20051;-51
2024/01/16 10:02:59;;;;;;;20.27;10.32;;;0.90;99.90;;;;;;5034921;28;20038;-51
2024/01/16 10:05:25;;;;;;;16.02;9.50;;;1.00;99.90;;;;;;5035007;28;20025;-49
2024/01/16 10:07:51;;;;;;;18.58;9.32;;;1.10;99.90;;;;;;5034598;28;20076;-52
2024/01/16 10:10:18;;;;;;;17.83;9.88;;;1.20;99.90;;;;;;5033226;28;20552;-49
2024/01/16 10:12:45;;;;;;;15.75;9.27;;;1.30;99.90;;;;;;5033381;28;20029;-50
2024/01/16 10:15:13;;;;;;;15.50;9.18;;;1.50;99.90;;;;;;5034741;28;20028;-47
2024/01/16 10:17:41;;;;;;;15.88;9.20;;;1.80;99.90;;;;;;5033216;28;20509;-51
2024/01/16 10:20:13;;;;;;;15.27;8.23;;;2.00;99.90;;;;;;5033142;28;20112;-52
2024/01/16 10:22:44;;;;;;;15.27;8.98;;;1.90;99.90;;;;;;5034693;28;20025;-49
2024/01/16 10:25:12;;;;;;;13.07;8.30;;;2.00;99.90;;;;;;5034333;28;20061;-52
2024/01/16 10:27:39;;;;;;;16.98;8.52;;;2.20;99.90;;;;;;5034160;28;20018;-50
2024/01/16 10:30:06;;;;;;;16.10;9.88;;;2.40;99.90;;;;;;5034440;28;20485;-52
2024/01/16 10:32:34;;;;;;;16.90;8.95;;;2.30;99.90;;;;;;5034605;28;20060;-52
2024/01/16 10:35:13;;;;;;;15.77;8.45;;;2.50;99.90;;;;;;5033385;28;20108;-51
2024/01/16 10:37:50;;;;;;;23.17;10.02;;;2.50;99.90;;;;;;5034016;28;20029;-50
2024/01/16 10:40:16;;;;;;;15.57;8.68;;;2.50;99.90;;;;;;5033226;28;20116;-47
2024/01/16 10:42:42;;;;;;;16.23;9.20;;;2.40;99.90;;;;;;5034575;28;20100;-55
2024/01/16 10:45:08;;;;;;;13.73;9.38;;;2.30;99.90;;;;;;5034239;28;20132;-55
2024/01/16 10:47:36;;;;;;;13.38;8.60;;;2.30;99.90;;;;;;5032215;28;20437;-48
2024/01/16 10:50:05;;;;;;;15.90;9.07;;;2.10;99.90;;;;;;5034262;28;20017;-53
2024/01/16 10:52:33;;;;;;;17.45;8.73;;;2.00;99.90;;;;;;5034338;28;20386;-48
2024/01/16 10:55:04;;;;;;;14.05;8.88;;;1.80;99.90;;;;;;5034252;28;20475;-51
2024/01/16 10:57:31;;;;;;;16.67;9.32;;;1.80;99.90;;;;;;5034078;28;20379;-52
2024/01/16 11:00:04;;;;;;;14.40;8.73;;;1.80;99.90;;;;;;5032590;28;20112;-52
2024/01/16 11:02:38;;;;;;;14.98;8.77;;;1.70;99.90;;;;;;5034008;28;20029;-51
2024/01/16 11:05:06;;;;;;;18.60;10.13;;;1.70;99.90;;;;;;5033827;28;20029;-51
2024/01/16 11:07:35;;;;;;;26.08;10.15;;;1.70;99.90;;;;;;5033785;28;20033;-53
2024/01/16 11:10:02;;;;;;;16.40;10.25;;;1.70;99.90;;;;;;5034462;28;20112;-46
2024/01/16 11:12:33;;;;;;;14.50;8.38;;;1.60;99.90;;;;;;5032816;28;20064;-51
2024/01/16 11:15:01;;;;;;;14.40;9.05;;;1.70;99.90;;;;;;5033799;28;20067;-48
2024/01/16 11:17:29;;;;;;;16.98;8.40;;;1.70;99.90;;;;;;5033554;28;20044;-48
2024/01/16 11:19:55;;;;;;;17.77;10.35;;;1.80;99.90;;;;;;5034048;28;20060;-47
2024/01/16 11:22:21;;;;;;;14.27;9.00;;;1.80;99.90;;;;;;5035089;28;20398;-48
2024/01/16 11:25:07;;;;;;;15.95;8.15;;;1.90;99.90;;;;;;5037836;28;20034;-47
2024/01/16 11:27:33;;;;;;;24.25;9.38;;;2.00;99.90;;;;;;5036272;28;20049;-48
2024/01/16 11:29:59;;;;;;;14.38;8.95;;;2.10;99.90;;;;;;5037735;28;20045;-47
2024/01/16 11:32:40;;;;;;;17.45;9.20;;;2.10;99.90;;;;;;5035288;28;20021;-50
2024/01/16 11:35:09;;;;;;;18.02;9.30;;;2.30;99.90;;;;;;5033365;28;20025;-49
2024/01/16 11:37:41;;;;;;;27.17;11.23;;;2.50;99.90;;;;;;5031523;28;20055;-53
2024/01/16 11:40:21;;;;;;;51.42;25.60;;;2.70;99.90;;;;;;5031832;28;20486;-47
2024/01/16 11:42:48;;;;;;;17.15;9.55;;;;;;;;;;5031816;28;20401;-50
2024/01/16 11:45:29;;;;;;;19.80;9.10;;;2.80;99.90;;;;;;5033124;28;20052;-53
2024/01/16 11:48:14;;;;;;;14.55;8.25;;;2.70;99.90;;;;;;5031262;28;20026;-53
2024/01/16 11:50:40;;;;;;;11.27;8.25;;;2.80;99.90;;;;;;5032928;28;20021;-48
2024/01/16 11:53:06;;;;;;;13.25;8.50;;;2.80;99.90;;;;;;5032930;28;20021;-48
2024/01/16 11:55:34;;;;;;;16.50;8.00;;;2.80;99.90;;;;;;5031421;28;20025;-48
2024/01/16 11:58:38;;;;;;;19.23;9.38;;;2.70;99.90;;;;;;5032798;28;20025;-46
2024/01/16 12:01:05;;;;;;;15.90;7.63;;;2.80;99.90;;;;;;5031149;28;20021;-48
2024/01/16 12:03:31;;;;;;;23.35;8.73;;;2.60;99.90;;;;;;5032705;28;20053;-45
2024/01/16 12:05:57;;;;;;;19.33;8.75;;;2.50;99.90;;;;;;5032491;28;20312;-48
2024/01/16 12:08:23;;;;;;;18.13;8.25;;;2.30;99.90;;;;;;5032473;28;20044;-49
2024/01/16 12:10:48;;;;;;;17.10;8.07;;;2.20;99.90;;;;;;5031639;28;20034;-45
2024/01/16 12:13:14;;;;;;;17.35;8.88;;;2.20;99.90;;;;;;5032436;28;20099;-49
2024/01/16 12:15:41;;;;;;;12.93;7.35;;;2.30;99.90;;;;;;5032742;28;20051;-48
2024/01/16 12:18:07;;;;;;;16.05;8.15;;;2.40;99.90;;;;;;5032328;28;20025;-49
2024/01/16 12:20:35;;;;;;;13.45;8.05;;;2.50;99.90;;;;;;5031982;28;20072;-49
2024/01/16 12:23:01;;;;;;;15.23;7.65;;;2.60;99.90;;;;;;5032314;28;20398;-46
2024/01/16 12:25:31;;;;;;;17.75;8.15;;;2.80;99.90;;;;;;5032307;28;20037;-48
2024/01/16 12:27:58;;;;;;;13.18;8.00;;;2.60;99.90;;;;;;5032147;28;20027;-48
2024/01/16 12:30:30;;;;;;;20.33;7.53;;;2.70;99.90;;;;;;5032159;28;20036;-48
2024/01/16 12:33:12;;;;;;;19.77;9.82;;;2.70;99.90;;;;;;5032296;28;20017;-52
2024/01/16 12:35:42;;;;;;;16.75;8.50;;;2.80;99.90;;;;;;5032439;28;20025;-46
2024/01/16 12:38:09;;;;;;;12.13;6.18;;;2.80;99.90;;;;;;5031837;28;20510;-45
2024/01/16 12:40:48;;;;;;;14.80;7.65;;;3.00;99.90;;;;;;5032090;28;20037;-46
2024/01/16 12:43:15;;;;;;;12.32;7.30;;;3.00;99.90;;;;;;5032342;28;20025;-45